Time;durP1;ratioP1;P1;durP2;ratioP2;P2;SDS_P1;SDS_P2;PMS_P1;PMS_P2;Temp;Humidity;BMP_temperature;BMP_pressure;BME280_temperature;BME280_humidity;BME280_pressure;Samples;Min_cycle;Max_cycle;Signal;HPM_P1;HPM_P2
2022/10/05 00:01:13;;;;;;;;;;;21.10;45.40;;;;;;485523;245;1358;-53
2022/10/05 00:03:14;;;;;;;;;;;21.10;45.40;;;;;;485488;245;1275;-53
2022/10/05 00:05:16;;;;;;;;;;;21.10;45.30;;;;;;485686;245;1281;-53
2022/10/05 00:07:17;;;;;;;;;;;21.10;45.40;;;;;;485426;245;1378;-53
2022/10/05 00:09:19;;;;;;;;;;;21.10;45.30;;;;;;485421;245;1342;-54
2022/10/05 00:11:19;;;;;;;;;;;21.10;45.40;;;;;;485739;245;2248;-54
2022/10/05 00:13:21;;;;;;;;;;;21.10;45.30;;;;;;485568;245;1190;-53
2022/10/05 00:15:22;;;;;;;;;;;21.10;45.30;;;;;;485749;245;1110;-54
2022/10/05 00:17:23;;;;;;;;;;;21.10;45.30;;;;;;485307;245;2207;-54
2022/10/05 00:19:25;;;;;;;;;;;21.10;45.40;;;;;;485291;245;1227;-54
2022/10/05 00:21:26;;;;;;;;;;;21.10;45.30;;;;;;485755;245;1198;-53
2022/10/05 00:23:28;;;;;;;;;;;21.10;45.40;;;;;;485581;245;1355;-53
2022/10/05 00:25:29;;;;;;;;;;;21.10;45.40;;;;;;485533;245;1330;-53
2022/10/05 00:27:30;;;;;;;;;;;21.10;45.30;;;;;;485750;245;1218;-53
2022/10/05 00:29:31;;;;;;;;;;;21.10;45.40;;;;;;485650;245;1260;-53
2022/10/05 00:31:33;;;;;;;;;;;21.10;45.40;;;;;;485471;245;1298;-54
2022/10/05 00:33:34;;;;;;;;;;;21.10;45.40;;;;;;485076;245;1193;-53
2022/10/05 00:35:35;;;;;;;;;;;21.10;45.30;;;;;;485490;245;1387;-53
2022/10/05 00:37:37;;;;;;;;;;;21.10;45.40;;;;;;485277;245;2199;-53
2022/10/05 00:39:38;;;;;;;;;;;21.10;45.30;;;;;;485331;245;1239;-54
2022/10/05 00:41:39;;;;;;;;;;;21.10;45.40;;;;;;485580;245;1317;-54
2022/10/05 00:43:41;;;;;;;;;;;21.10;45.40;;;;;;485343;245;1387;-53
2022/10/05 00:45:42;;;;;;;;;;;21.10;45.40;;;;;;485516;245;1715;-54
2022/10/05 00:47:43;;;;;;;;;;;21.10;45.40;;;;;;485721;245;1339;-54
2022/10/05 00:49:45;;;;;;;;;;;21.10;45.40;;;;;;485733;245;1393;-54
2022/10/05 00:51:46;;;;;;;;;;;21.10;45.40;;;;;;485268;245;1262;-54
2022/10/05 00:53:47;;;;;;;;;;;21.10;45.40;;;;;;485301;245;1192;-54
2022/10/05 00:55:49;;;;;;;;;;;21.10;45.40;;;;;;485315;245;1524;-53
2022/10/05 00:57:50;;;;;;;;;;;21.10;45.40;;;;;;485719;245;2227;-54
2022/10/05 00:59:51;;;;;;;;;;;21.10;45.40;;;;;;485742;245;1326;-53
2022/10/05 01:01:53;;;;;;;;;;;21.10;45.40;;;;;;485567;245;1273;-54
2022/10/05 01:03:54;;;;;;;;;;;21.10;45.40;;;;;;485097;245;1174;-53
2022/10/05 01:05:55;;;;;;;;;;;21.10;45.40;;;;;;485341;245;1106;-53
2022/10/05 01:07:57;;;;;;;;;;;21.10;45.40;;;;;;485334;245;1151;-54
2022/10/05 01:09:58;;;;;;;;;;;21.10;45.40;;;;;;485502;245;1170;-54
2022/10/05 01:11:59;;;;;;;;;;;21.10;45.40;;;;;;485782;245;1101;-54
2022/10/05 01:14:00;;;;;;;;;;;21.10;45.40;;;;;;485490;245;1123;-54
2022/10/05 01:16:03;;;;;;;;;;;21.10;45.40;;;;;;485474;245;1215;-54
2022/10/05 01:18:03;;;;;;;;;;;21.10;45.40;;;;;;485585;245;2201;-54
2022/10/05 01:20:05;;;;;;;;;;;21.10;45.40;;;;;;485585;245;1187;-54
2022/10/05 01:22:06;;;;;;;;;;;21.10;45.50;;;;;;485775;245;1117;-53
2022/10/05 01:24:07;;;;;;;;;;;21.10;45.50;;;;;;485522;245;1228;-54
2022/10/05 01:26:09;;;;;;;;;;;21.10;45.50;;;;;;485753;245;1261;-54
2022/10/05 01:28:10;;;;;;;;;;;21.10;45.50;;;;;;485742;245;1254;-53
2022/10/05 01:30:11;;;;;;;;;;;21.10;45.50;;;;;;485708;245;1211;-53
2022/10/05 01:32:13;;;;;;;;;;;21.10;45.50;;;;;;485247;243;1183;-53
2022/10/05 01:34:14;;;;;;;;;;;21.10;45.50;;;;;;485136;245;1073;-54
2022/10/05 01:36:15;;;;;;;;;;;21.10;45.50;;;;;;485317;245;1153;-54
2022/10/05 01:38:17;;;;;;;;;;;21.00;45.50;;;;;;485747;245;2163;-53
2022/10/05 01:40:18;;;;;;;;;;;21.10;45.50;;;;;;485462;245;1288;-53
2022/10/05 01:42:19;;;;;;;;;;;21.10;45.50;;;;;;485381;245;1262;-53
2022/10/05 01:44:21;;;;;;;;;;;21.10;45.50;;;;;;485597;245;1381;-54
2022/10/05 01:46:22;;;;;;;;;;;21.10;45.50;;;;;;485630;245;1237;-54
2022/10/05 01:48:23;;;;;;;;;;;21.10;45.40;;;;;;485356;245;1217;-54
2022/10/05 01:50:25;;;;;;;;;;;21.00;45.40;;;;;;485272;245;1307;-54
2022/10/05 01:52:26;;;;;;;;;;;21.10;45.50;;;;;;485621;245;1239;-53
2022/10/05 01:54:27;;;;;;;;;;;21.10;45.50;;;;;;485235;245;1262;-53
2022/10/05 01:56:28;;;;;;;;;;;21.10;45.50;;;;;;485726;245;1276;-54
2022/10/05 01:58:30;;;;;;;;;;;21.10;45.50;;;;;;485685;245;2191;-53
2022/10/05 02:00:31;;;;;;;;;;;21.10;45.50;;;;;;485702;245;1263;-54
2022/10/05 02:02:32;;;;;;;;;;;21.10;45.50;;;;;;485405;245;1714;-53
2022/10/05 02:04:34;;;;;;;;;;;21.10;45.50;;;;;;485620;245;1217;-53
2022/10/05 02:06:35;;;;;;;;;;;21.10;45.50;;;;;;485358;245;1260;-53
2022/10/05 02:08:36;;;;;;;;;;;21.10;45.50;;;;;;485522;245;1280;-54
2022/10/05 02:10:38;;;;;;;;;;;21.10;45.50;;;;;;485398;245;1208;-53
2022/10/05 02:12:39;;;;;;;;;;;21.10;45.50;;;;;;485327;245;1471;-53
2022/10/05 02:14:40;;;;;;;;;;;21.10;45.50;;;;;;485267;245;1274;-53
2022/10/05 02:16:42;;;;;;;;;;;21.00;45.50;;;;;;485352;245;1283;-53
2022/10/05 02:18:43;;;;;;;;;;;21.10;45.60;;;;;;485696;245;2193;-53
2022/10/05 02:20:44;;;;;;;;;;;21.10;45.50;;;;;;485730;245;1305;-54
2022/10/05 02:22:46;;;;;;;;;;;21.10;45.50;;;;;;485341;245;1321;-53
2022/10/05 02:24:47;;;;;;;;;;;21.10;45.50;;;;;;485734;245;1339;-53
2022/10/05 02:26:48;;;;;;;;;;;21.10;45.50;;;;;;485756;245;1221;-53
2022/10/05 02:28:50;;;;;;;;;;;21.10;45.50;;;;;;485321;245;1317;-54
2022/10/05 02:30:51;;;;;;;;;;;21.10;45.50;;;;;;485731;245;1352;-54
2022/10/05 02:32:52;;;;;;;;;;;21.10;45.50;;;;;;485115;245;1284;-54
2022/10/05 02:34:54;;;;;;;;;;;21.10;45.50;;;;;;485277;245;1259;-53
2022/10/05 02:36:55;;;;;;;;;;;21.00;45.50;;;;;;485438;245;2159;-53
2022/10/05 02:38:58;;;;;;;;;;;21.10;45.60;;;;;;485441;245;1209;-54
2022/10/05 02:40:58;;;;;;;;;;;21.10;45.60;;;;;;485194;246;2295;-54
2022/10/05 02:42:59;;;;;;;;;;;21.00;45.50;;;;;;485495;245;1312;-54
2022/10/05 02:45:00;;;;;;;;;;;21.00;45.50;;;;;;485525;245;1270;-54
2022/10/05 02:47:02;;;;;;;;;;;21.10;45.60;;;;;;485505;245;1280;-54
2022/10/05 02:49:03;;;;;;;;;;;21.10;45.60;;;;;;485763;245;1252;-53
2022/10/05 02:51:04;;;;;;;;;;;21.10;45.50;;;;;;485610;245;1352;-54
2022/10/05 02:53:06;;;;;;;;;;;21.10;45.50;;;;;;485754;245;1058;-54
2022/10/05 02:55:08;;;;;;;;;;;21.10;45.60;;;;;;485778;245;1229;-54
2022/10/05 02:57:08;;;;;;;;;;;21.10;45.50;;;;;;485485;245;2355;-53
2022/10/05 02:59:10;;;;;;;;;;;21.00;45.50;;;;;;485716;245;1083;-54
2022/10/05 03:01:11;;;;;;;;;;;21.10;45.60;;;;;;485738;245;1196;-54
2022/10/05 03:03:12;;;;;;;;;;;21.10;45.50;;;;;;485547;245;1142;-53
2022/10/05 03:05:14;;;;;;;;;;;21.10;45.50;;;;;;485768;245;1207;-54
2022/10/05 03:07:15;;;;;;;;;;;21.10;45.50;;;;;;485698;245;1207;-53
2022/10/05 03:09:16;;;;;;;;;;;21.00;45.50;;;;;;485690;245;1270;-54
2022/10/05 03:11:18;;;;;;;;;;;21.10;45.50;;;;;;485516;245;1229;-54
2022/10/05 03:13:19;;;;;;;;;;;21.10;45.50;;;;;;485754;245;1242;-54
2022/10/05 03:15:20;;;;;;;;;;;21.10;45.50;;;;;;485706;245;1246;-53
2022/10/05 03:17:22;;;;;;;;;;;21.10;45.60;;;;;;485308;245;2187;-54
2022/10/05 03:19:23;;;;;;;;;;;21.10;45.60;;;;;;485763;245;1398;-53
2022/10/05 03:21:24;;;;;;;;;;;21.10;45.60;;;;;;485762;245;1339;-53
2022/10/05 03:23:26;;;;;;;;;;;21.00;45.60;;;;;;485339;245;1302;-53
2022/10/05 03:25:27;;;;;;;;;;;21.10;45.60;;;;;;485718;245;1400;-54
2022/10/05 03:27:28;;;;;;;;;;;21.10;45.60;;;;;;485293;245;1255;-53
2022/10/05 03:29:29;;;;;;;;;;;21.10;45.60;;;;;;485696;245;1243;-54
2022/10/05 03:31:31;;;;;;;;;;;21.00;45.60;;;;;;485730;245;1233;-54
2022/10/05 03:33:32;;;;;;;;;;;21.10;45.60;;;;;;485262;245;1279;-54
2022/10/05 03:35:33;;;;;;;;;;;21.10;45.60;;;;;;485276;245;1308;-54
2022/10/05 03:37:35;;;;;;;;;;;21.10;45.60;;;;;;485730;245;2163;-54
2022/10/05 03:39:36;;;;;;;;;;;21.00;45.60;;;;;;485696;245;1290;-53
2022/10/05 03:41:37;;;;;;;;;;;21.00;45.60;;;;;;485407;245;1342;-53
2022/10/05 03:43:39;;;;;;;;;;;21.00;45.60;;;;;;485528;245;1330;-54
2022/10/05 03:45:40;;;;;;;;;;;21.10;45.70;;;;;;485361;245;1228;-54
2022/10/05 03:47:41;;;;;;;;;;;21.00;45.60;;;;;;485280;245;1745;-53
2022/10/05 03:49:43;;;;;;;;;;;21.00;45.70;;;;;;485740;245;1256;-53
2022/10/05 03:51:44;;;;;;;;;;;21.00;45.70;;;;;;485721;245;1212;-53
2022/10/05 03:53:45;;;;;;;;;;;21.00;45.70;;;;;;485369;245;1276;-53
2022/10/05 03:55:47;;;;;;;;;;;21.00;45.70;;;;;;485686;245;1338;-54
2022/10/05 03:57:48;;;;;;;;;;;21.00;45.70;;;;;;485270;245;2199;-53
2022/10/05 03:59:49;;;;;;;;;;;21.00;45.70;;;;;;485312;245;1240;-54
2022/10/05 04:01:51;;;;;;;;;;;21.00;45.70;;;;;;485465;245;1593;-53
2022/10/05 04:03:52;;;;;;;;;;;21.00;45.60;;;;;;485201;245;1235;-54
2022/10/05 04:05:53;;;;;;;;;;;21.00;45.70;;;;;;485402;245;1217;-54
2022/10/05 04:07:55;;;;;;;;;;;21.00;45.70;;;;;;485285;245;1403;-54
2022/10/05 04:09:56;;;;;;;;;;;21.00;45.70;;;;;;485746;245;1285;-54
2022/10/05 04:11:57;;;;;;;;;;;21.00;45.60;;;;;;485534;245;1291;-53
2022/10/05 04:13:59;;;;;;;;;;;21.00;45.60;;;;;;485348;245;1458;-54
2022/10/05 04:16:00;;;;;;;;;;;21.00;45.60;;;;;;485313;245;1393;-54
2022/10/05 04:18:01;;;;;;;;;;;21.00;45.60;;;;;;485734;245;2156;-54
2022/10/05 04:20:03;;;;;;;;;;;21.00;45.60;;;;;;485466;245;1278;-53
2022/10/05 04:22:05;;;;;;;;;;;21.10;45.60;;;;;;485254;245;1266;-54
2022/10/05 04:24:06;;;;;;;;;;;21.00;45.60;;;;;;485628;245;1296;-54
2022/10/05 04:26:07;;;;;;;;;;;21.10;45.60;;;;;;485293;245;1181;-53
2022/10/05 04:28:09;;;;;;;;;;;21.10;45.60;;;;;;485261;245;1292;-53
2022/10/05 04:30:11;;;;;;;;;;;21.00;45.60;;;;;;485267;245;1261;-53
2022/10/05 04:32:11;;;;;;;;;;;21.00;45.60;;;;;;485172;245;2374;-53
2022/10/05 04:34:13;;;;;;;;;;;21.00;45.70;;;;;;485120;245;1526;-53
2022/10/05 04:36:14;;;;;;;;;;;21.00;45.70;;;;;;485271;245;1136;-54
2022/10/05 04:38:15;;;;;;;;;;;21.00;45.70;;;;;;485238;245;2184;-53
2022/10/05 04:40:16;;;;;;;;;;;21.00;45.70;;;;;;485277;245;1129;-53
2022/10/05 04:42:18;;;;;;;;;;;21.00;45.60;;;;;;485355;245;1183;-53
2022/10/05 04:44:19;;;;;;;;;;;21.00;45.60;;;;;;485743;245;1145;-53
2022/10/05 04:46:20;;;;;;;;;;;21.00;45.70;;;;;;485274;245;1291;-53
2022/10/05 04:48:22;;;;;;;;;;;21.00;45.70;;;;;;485288;245;1234;-54
2022/10/05 04:50:23;;;;;;;;;;;21.00;45.70;;;;;;485650;245;2040;-53
2022/10/05 04:52:24;;;;;;;;;;;21.00;45.70;;;;;;485338;245;1350;-54
2022/10/05 04:54:26;;;;;;;;;;;21.10;45.70;;;;;;485755;245;1266;-53
2022/10/05 04:56:27;;;;;;;;;;;21.00;45.60;;;;;;485742;245;1224;-54
2022/10/05 04:58:28;;;;;;;;;;;21.00;45.60;;;;;;485318;245;2156;-53
2022/10/05 05:00:30;;;;;;;;;;;21.00;45.70;;;;;;485372;245;1326;-54
2022/10/05 05:02:31;;;;;;;;;;;21.00;45.70;;;;;;485119;245;1558;-54
2022/10/05 05:04:32;;;;;;;;;;;21.00;45.70;;;;;;485267;245;1306;-53
2022/10/05 05:06:34;;;;;;;;;;;21.10;45.70;;;;;;485628;245;1242;-53
2022/10/05 05:08:35;;;;;;;;;;;21.00;45.60;;;;;;485677;245;1312;-54
2022/10/05 05:10:37;;;;;;;;;;;21.10;45.70;;;;;;485240;245;1194;-54
2022/10/05 05:12:38;;;;;;;;;;;21.00;45.60;;;;;;485184;245;1908;-53
2022/10/05 05:14:39;;;;;;;;;;;21.00;45.70;;;;;;485686;245;1226;-54
2022/10/05 05:16:40;;;;;;;;;;;21.00;45.70;;;;;;485233;245;1200;-53
2022/10/05 05:18:42;;;;;;;;;;;21.00;45.60;;;;;;485232;245;2164;-54
2022/10/05 05:20:43;;;;;;;;;;;21.10;45.60;;;;;;485160;245;1192;-53
2022/10/05 05:22:45;;;;;;;;;;;21.10;45.70;;;;;;485136;245;1336;-53
2022/10/05 05:24:46;;;;;;;;;;;21.00;45.60;;;;;;485219;245;1319;-54
2022/10/05 05:26:47;;;;;;;;;;;21.10;45.70;;;;;;485706;245;1213;-54
2022/10/05 05:28:49;;;;;;;;;;;21.00;45.60;;;;;;485225;245;1214;-54
2022/10/05 05:30:50;;;;;;;;;;;21.00;45.60;;;;;;485580;243;1115;-53
2022/10/05 05:32:51;;;;;;;;;;;21.10;45.70;;;;;;485232;245;1271;-54
2022/10/05 05:34:53;;;;;;;;;;;21.10;45.70;;;;;;485225;245;1237;-54
2022/10/05 05:36:54;;;;;;;;;;;21.10;45.60;;;;;;485633;245;1354;-53
2022/10/05 05:38:55;;;;;;;;;;;21.10;45.70;;;;;;485193;245;2160;-54
2022/10/05 05:40:57;;;;;;;;;;;21.10;45.60;;;;;;485211;245;1207;-53
2022/10/05 05:42:58;;;;;;;;;;;21.10;45.60;;;;;;485534;245;1225;-53
2022/10/05 05:44:59;;;;;;;;;;;21.10;45.60;;;;;;485122;245;1231;-53
2022/10/05 05:47:01;;;;;;;;;;;21.10;45.60;;;;;;485028;245;1279;-54
2022/10/05 05:49:02;;;;;;;;;;;21.00;45.60;;;;;;485130;245;1233;-54
2022/10/05 05:51:03;;;;;;;;;;;21.10;45.70;;;;;;485113;245;1242;-54
2022/10/05 05:53:05;;;;;;;;;;;21.10;45.60;;;;;;485152;245;1202;-53
2022/10/05 05:55:06;;;;;;;;;;;21.10;45.60;;;;;;485532;245;1252;-53
2022/10/05 05:57:09;;;;;;;;;;;21.10;45.60;;;;;;485199;245;1242;-53
2022/10/05 05:59:09;;;;;;;;;;;21.10;45.60;;;;;;485091;245;2179;-54
2022/10/05 06:01:10;;;;;;;;;;;21.10;45.60;;;;;;485238;245;1376;-53
2022/10/05 06:03:12;;;;;;;;;;;21.10;45.60;;;;;;484913;245;1570;-53
2022/10/05 06:05:13;;;;;;;;;;;21.10;45.60;;;;;;485113;245;1433;-53
2022/10/05 06:07:14;;;;;;;;;;;21.10;45.60;;;;;;485198;245;1320;-53
2022/10/05 06:09:15;;;;;;;;;;;21.10;45.60;;;;;;485150;245;1326;-53
2022/10/05 06:11:17;;;;;;;;;;;21.10;45.50;;;;;;485276;245;1308;-52
2022/10/05 06:13:19;;;;;;;;;;;21.10;45.50;;;;;;485096;245;1634;-53
2022/10/05 06:15:20;;;;;;;;;;;21.10;45.50;;;;;;485244;245;1284;-52
2022/10/05 06:17:21;;;;;;;;;;;21.10;45.40;;;;;;485221;245;1206;-53
2022/10/05 06:19:23;;;;;;;;;;;21.20;45.40;;;;;;485109;245;2151;-52
2022/10/05 06:21:24;;;;;;;;;;;21.10;45.40;;;;;;484730;245;1243;-53
2022/10/05 06:23:26;;;;;;;;;;;21.20;45.40;;;;;;485506;245;1228;-53
2022/10/05 06:25:27;;;;;;;;;;;21.20;45.30;;;;;;484890;245;1191;-53
2022/10/05 06:27:28;;;;;;;;;;;21.20;45.30;;;;;;485319;245;1247;-53
2022/10/05 06:29:30;;;;;;;;;;;21.20;45.30;;;;;;485324;245;1366;-53
2022/10/05 06:31:31;;;;;;;;;;;21.20;45.20;;;;;;485630;245;1260;-53
2022/10/05 06:33:32;;;;;;;;;;;21.20;45.20;;;;;;484883;245;1253;-52
2022/10/05 06:35:33;;;;;;;;;;;21.20;45.20;;;;;;485303;245;1231;-53
2022/10/05 06:37:35;;;;;;;;;;;21.20;45.20;;;;;;485206;245;1195;-53
2022/10/05 06:39:36;;;;;;;;;;;21.20;45.20;;;;;;485017;245;2264;-53
2022/10/05 06:41:37;;;;;;;;;;;21.20;45.20;;;;;;485266;245;1225;-53
2022/10/05 06:43:39;;;;;;;;;;;21.30;45.20;;;;;;485095;245;1238;-53
2022/10/05 06:45:40;;;;;;;;;;;21.30;45.20;;;;;;485069;245;1314;-53
2022/10/05 06:47:42;;;;;;;;;;;21.30;45.20;;;;;;485086;245;1291;-53
2022/10/05 06:49:43;;;;;;;;;;;21.30;45.20;;;;;;485303;245;1319;-53
2022/10/05 06:51:44;;;;;;;;;;;21.30;45.10;;;;;;485127;245;1286;-53
2022/10/05 06:53:46;;;;;;;;;;;21.30;45.10;;;;;;485042;245;1322;-53
2022/10/05 06:55:47;;;;;;;;;;;21.30;45.10;;;;;;485267;245;1259;-53
2022/10/05 06:57:48;;;;;;;;;;;21.30;45.10;;;;;;485154;245;1261;-53
2022/10/05 06:59:50;;;;;;;;;;;21.30;45.10;;;;;;485214;245;2184;-53
2022/10/05 07:01:51;;;;;;;;;;;21.30;45.10;;;;;;485033;245;1283;-53
2022/10/05 07:03:52;;;;;;;;;;;21.30;45.10;;;;;;484897;245;1240;-53
2022/10/05 07:05:54;;;;;;;;;;;21.30;45.10;;;;;;485083;245;1142;-53
2022/10/05 07:07:55;;;;;;;;;;;21.30;45.00;;;;;;485199;245;1201;-53
2022/10/05 07:09:56;;;;;;;;;;;21.30;45.00;;;;;;485000;245;1317;-53
2022/10/05 07:11:57;;;;;;;;;;;21.30;45.00;;;;;;484990;245;1238;-53
2022/10/05 07:14:00;;;;;;;;;;;21.30;45.00;;;;;;485076;245;1200;-53
2022/10/05 07:16:00;;;;;;;;;;;21.40;45.00;;;;;;484942;245;1349;-53
2022/10/05 07:18:02;;;;;;;;;;;21.30;45.00;;;;;;484997;245;1248;-53
2022/10/05 07:20:03;;;;;;;;;;;21.40;45.10;;;;;;485131;245;2191;-53
2022/10/05 07:22:04;;;;;;;;;;;21.30;45.00;;;;;;485125;245;1325;-53
2022/10/05 07:24:06;;;;;;;;;;;21.30;45.00;;;;;;485210;245;1364;-53
2022/10/05 07:26:07;;;;;;;;;;;21.40;45.10;;;;;;485190;245;1316;-53
2022/10/05 07:28:08;;;;;;;;;;;21.40;45.10;;;;;;485089;245;1200;-53
2022/10/05 07:30:10;;;;;;;;;;;21.40;45.10;;;;;;485131;245;1173;-53
2022/10/05 07:32:11;;;;;;;;;;;21.40;45.10;;;;;;484935;245;1225;-53
2022/10/05 07:34:12;;;;;;;;;;;21.40;45.10;;;;;;484907;245;1347;-53
2022/10/05 07:38:33;;;;;;;;;;;21.40;45.10;;;;;;485116;246;1289;-53
2022/10/05 07:40:36;;;;;;;;;;;21.40;45.10;;;;;;484936;245;2195;-53
2022/10/05 07:42:39;;;;;;;;;;;21.40;45.10;;;;;;484927;246;2406;-53
2022/10/05 07:44:38;;;;;;;;;;;21.40;45.00;;;;;;484801;246;1368;-53
2022/10/05 07:46:39;;;;;;;;;;;21.40;45.00;;;;;;485457;245;1192;-53
2022/10/05 07:48:40;;;;;;;;;;;21.40;45.00;;;;;;485315;245;1208;-53
2022/10/05 07:50:42;;;;;;;;;;;21.50;45.10;;;;;;484953;245;1332;-53
2022/10/05 07:52:43;;;;;;;;;;;21.40;45.10;;;;;;485286;245;1579;-53
2022/10/05 07:54:44;;;;;;;;;;;21.40;45.10;;;;;;484790;245;1214;-53
2022/10/05 07:56:46;;;;;;;;;;;21.40;45.20;;;;;;484892;245;1306;-53
2022/10/05 07:58:47;;;;;;;;;;;21.40;45.20;;;;;;484952;245;1209;-53
2022/10/05 08:00:48;;;;;;;;;;;21.40;45.20;;;;;;485012;245;2191;-53
2022/10/05 08:02:50;;;;;;;;;;;21.40;45.20;;;;;;484709;245;1207;-53
2022/10/05 08:04:51;;;;;;;;;;;21.40;45.10;;;;;;484958;245;1288;-53
2022/10/05 08:06:52;;;;;;;;;;;21.40;45.10;;;;;;485099;245;1274;-53
2022/10/05 08:08:55;;;;;;;;;;;21.40;45.10;;;;;;485288;245;1271;-53
2022/10/05 08:10:55;;;;;;;;;;;21.40;45.10;;;;;;484907;246;2292;-53
2022/10/05 08:12:58;;;;;;;;;;;21.50;45.20;;;;;;485131;245;1232;-53
2022/10/05 08:14:58;;;;;;;;;;;21.50;45.10;;;;;;484951;246;2419;-53
2022/10/05 08:17:00;;;;;;;;;;;21.50;45.10;;;;;;484946;245;1234;-53
2022/10/05 08:19:01;;;;;;;;;;;21.50;45.10;;;;;;485130;245;2153;-53
2022/10/05 08:21:04;;;;;;;;;;;21.50;45.10;;;;;;485178;245;1334;-53
2022/10/05 08:23:03;;;;;;;;;;;21.50;45.10;;;;;;484885;246;1813;-53
2022/10/05 08:25:05;;;;;;;;;;;21.50;45.10;;;;;;485202;245;1211;-53
2022/10/05 08:27:06;;;;;;;;;;;21.50;45.10;;;;;;484981;245;1232;-53
2022/10/05 08:29:07;;;;;;;;;;;21.50;45.10;;;;;;485106;245;1212;-53
2022/10/05 08:31:09;;;;;;;;;;;21.50;45.20;;;;;;485191;245;1196;-53
2022/10/05 08:33:10;;;;;;;;;;;21.50;45.10;;;;;;485016;245;1298;-54
2022/10/05 08:35:11;;;;;;;;;;;21.50;45.20;;;;;;485303;245;1186;-53
2022/10/05 08:37:13;;;;;;;;;;;21.50;45.20;;;;;;485008;245;1346;-53
2022/10/05 08:39:14;;;;;;;;;;;21.50;45.10;;;;;;485119;245;2136;-53
2022/10/05 08:41:15;;;;;;;;;;;21.50;45.20;;;;;;485023;245;1280;-53
2022/10/05 08:43:17;;;;;;;;;;;21.50;45.20;;;;;;485226;245;1189;-53
2022/10/05 08:45:18;;;;;;;;;;;21.50;45.20;;;;;;484855;245;1245;-53
2022/10/05 08:47:19;;;;;;;;;;;21.50;45.10;;;;;;485144;245;1246;-53
2022/10/05 08:49:21;;;;;;;;;;;21.50;45.20;;;;;;485130;245;1261;-52
2022/10/05 08:51:22;;;;;;;;;;;21.50;45.20;;;;;;485144;245;1267;-53
2022/10/05 08:53:23;;;;;;;;;;;21.50;45.20;;;;;;484847;245;1181;-53
2022/10/05 08:55:25;;;;;;;;;;;21.50;45.30;;;;;;484983;245;1369;-53
2022/10/05 08:57:26;;;;;;;;;;;21.50;45.20;;;;;;484943;245;1204;-53
2022/10/05 08:59:28;;;;;;;;;;;21.50;45.20;;;;;;484818;246;2188;-53
2022/10/05 09:01:29;;;;;;;;;;;21.50;45.20;;;;;;484985;246;2434;-53
2022/10/05 09:03:30;;;;;;;;;;;21.50;45.30;;;;;;484841;245;1210;-53
2022/10/05 09:05:32;;;;;;;;;;;21.50;45.30;;;;;;484968;245;1385;-53
2022/10/05 09:07:33;;;;;;;;;;;21.50;45.30;;;;;;484993;245;1181;-53
2022/10/05 09:09:34;;;;;;;;;;;21.60;45.40;;;;;;484960;245;1184;-53
2022/10/05 09:11:36;;;;;;;;;;;21.50;45.30;;;;;;485135;245;1263;-53
2022/10/05 09:13:37;;;;;;;;;;;21.50;45.30;;;;;;484677;245;1272;-53
2022/10/05 09:15:39;;;;;;;;;;;21.60;45.40;;;;;;484726;245;1206;-53
2022/10/05 09:17:40;;;;;;;;;;;21.60;45.40;;;;;;484954;245;1171;-53
2022/10/05 09:19:41;;;;;;;;;;;21.50;45.40;;;;;;485102;245;2199;-53
2022/10/05 09:21:43;;;;;;;;;;;21.50;45.30;;;;;;485239;245;1695;-53
2022/10/05 09:23:45;;;;;;;;;;;21.50;45.40;;;;;;484892;245;1215;-53
2022/10/05 09:25:45;;;;;;;;;;;21.60;45.40;;;;;;484758;245;2416;-53
2022/10/05 09:27:47;;;;;;;;;;;21.60;45.40;;;;;;485071;245;1188;-53
2022/10/05 09:29:48;;;;;;;;;;;21.60;45.40;;;;;;484864;245;1229;-53
2022/10/05 09:31:50;;;;;;;;;;;21.60;45.40;;;;;;484961;245;1230;-53
2022/10/05 09:33:52;;;;;;;;;;;21.60;45.40;;;;;;484855;245;1598;-53
2022/10/05 09:35:52;;;;;;;;;;;21.60;45.40;;;;;;484830;246;1977;-53
2022/10/05 09:37:54;;;;;;;;;;;21.60;45.40;;;;;;485047;245;1232;-53
2022/10/05 09:39:55;;;;;;;;;;;21.60;45.40;;;;;;485026;245;2191;-53
2022/10/05 09:41:56;;;;;;;;;;;21.60;45.50;;;;;;485050;245;1275;-53
2022/10/05 09:43:58;;;;;;;;;;;21.60;45.50;;;;;;484986;245;1271;-53
2022/10/05 09:45:59;;;;;;;;;;;21.60;45.50;;;;;;485054;245;1237;-53
2022/10/05 09:48:00;;;;;;;;;;;21.60;45.50;;;;;;484796;245;1290;-53
2022/10/05 09:50:02;;;;;;;;;;;21.60;45.50;;;;;;484927;245;1235;-53
2022/10/05 09:52:04;;;;;;;;;;;21.60;45.50;;;;;;484984;245;1256;-53
2022/10/05 09:54:04;;;;;;;;;;;21.60;45.50;;;;;;484666;246;2405;-53
2022/10/05 09:56:08;;;;;;;;;;;21.60;45.50;;;;;;485026;245;1230;-53
2022/10/05 09:58:07;;;;;;;;;;;21.60;45.60;;;;;;484677;246;1457;-54
2022/10/05 10:00:08;;;;;;;;;;;21.60;45.60;;;;;;484845;245;2156;-53
2022/10/05 10:02:12;;;;;;;;;;;21.60;45.60;;;;;;484848;245;1324;-53
2022/10/05 10:04:11;;;;;;;;;;;21.60;45.60;;;;;;484563;246;1415;-53
2022/10/05 10:06:12;;;;;;;;;;;21.60;45.60;;;;;;484815;245;1411;-53
2022/10/05 10:08:14;;;;;;;;;;;21.60;45.60;;;;;;484768;245;1300;-53
2022/10/05 10:10:15;;;;;;;;;;;21.60;45.60;;;;;;484768;245;1336;-53
2022/10/05 10:12:16;;;;;;;;;;;21.60;45.60;;;;;;484723;245;1549;-53
2022/10/05 10:14:17;;;;;;;;;;;21.60;45.60;;;;;;484692;245;1356;-53
2022/10/05 10:16:19;;;;;;;;;;;21.60;45.60;;;;;;484823;245;1234;-53
2022/10/05 10:18:20;;;;;;;;;;;21.60;45.60;;;;;;484757;245;1183;-53
2022/10/05 10:20:22;;;;;;;;;;;21.60;45.60;;;;;;484797;245;2151;-53
2022/10/05 10:22:23;;;;;;;;;;;21.70;45.70;;;;;;484845;245;1197;-53
2022/10/05 10:24:24;;;;;;;;;;;21.60;45.60;;;;;;484749;245;1265;-53
2022/10/05 10:26:26;;;;;;;;;;;21.70;45.70;;;;;;484959;245;1284;-53
2022/10/05 10:28:27;;;;;;;;;;;21.60;45.60;;;;;;485015;245;1607;-53
2022/10/05 10:30:28;;;;;;;;;;;21.70;45.70;;;;;;484989;245;1608;-53
2022/10/05 10:32:30;;;;;;;;;;;21.70;45.70;;;;;;484980;245;1303;-53
2022/10/05 10:34:31;;;;;;;;;;;21.60;45.70;;;;;;484910;245;1257;-53
2022/10/05 10:36:32;;;;;;;;;;;21.60;45.70;;;;;;484967;245;1230;-53
2022/10/05 10:38:34;;;;;;;;;;;21.70;45.70;;;;;;485052;245;1221;-53
2022/10/05 10:40:35;;;;;;;;;;;21.60;45.70;;;;;;484963;245;2188;-53
2022/10/05 10:42:36;;;;;;;;;;;21.60;45.70;;;;;;484912;245;1232;-53
2022/10/05 10:44:38;;;;;;;;;;;21.60;45.70;;;;;;485024;245;1350;-53
2022/10/05 10:46:39;;;;;;;;;;;21.60;45.70;;;;;;484974;245;1253;-53
2022/10/05 10:48:41;;;;;;;;;;;21.60;45.70;;;;;;485028;245;1197;-53
2022/10/05 10:50:42;;;;;;;;;;;21.60;45.80;;;;;;485279;245;1222;-53
2022/10/05 10:52:43;;;;;;;;;;;21.70;45.80;;;;;;484890;245;1245;-53
2022/10/05 10:54:45;;;;;;;;;;;21.70;45.80;;;;;;484937;245;1309;-53
2022/10/05 10:56:46;;;;;;;;;;;21.70;45.70;;;;;;485004;245;1346;-53
2022/10/05 10:58:47;;;;;;;;;;;21.70;45.80;;;;;;484997;245;1144;-52
2022/10/05 11:00:49;;;;;;;;;;;21.60;45.80;;;;;;484762;245;2200;-53
2022/10/05 11:02:50;;;;;;;;;;;21.60;45.80;;;;;;484618;245;1260;-53
2022/10/05 11:04:52;;;;;;;;;;;21.60;45.80;;;;;;484850;245;1264;-53
2022/10/05 11:06:53;;;;;;;;;;;21.60;45.80;;;;;;485011;245;1294;-53
2022/10/05 11:08:55;;;;;;;;;;;21.60;45.90;;;;;;484755;245;1244;-53
2022/10/05 11:10:57;;;;;;;;;;;21.60;45.90;;;;;;484728;245;1190;-53
2022/10/05 11:12:57;;;;;;;;;;;21.60;45.90;;;;;;484687;246;1903;-53
2022/10/05 11:14:59;;;;;;;;;;;21.60;45.90;;;;;;484770;245;1279;-53
2022/10/05 11:17:00;;;;;;;;;;;21.60;45.90;;;;;;484822;245;1229;-53
2022/10/05 11:19:01;;;;;;;;;;;21.70;45.90;;;;;;484789;245;1545;-53
2022/10/05 11:21:03;;;;;;;;;;;21.60;45.90;;;;;;484767;245;2196;-53
2022/10/05 11:23:04;;;;;;;;;;;21.70;45.90;;;;;;484839;245;1270;-53
2022/10/05 11:25:05;;;;;;;;;;;21.70;45.90;;;;;;484803;245;1221;-53
2022/10/05 11:27:07;;;;;;;;;;;21.70;45.90;;;;;;484982;245;1176;-53
2022/10/05 11:29:08;;;;;;;;;;;21.70;45.90;;;;;;484892;243;1287;-53
2022/10/05 11:31:09;;;;;;;;;;;21.70;45.90;;;;;;485199;245;1440;-52
2022/10/05 11:33:11;;;;;;;;;;;21.70;45.90;;;;;;484872;245;1256;-53
2022/10/05 11:35:12;;;;;;;;;;;21.70;45.90;;;;;;485031;245;1177;-53
2022/10/05 11:37:14;;;;;;;;;;;21.70;45.90;;;;;;485051;245;1190;-53
2022/10/05 11:39:15;;;;;;;;;;;21.70;45.90;;;;;;484992;246;2381;-53
2022/10/05 11:41:16;;;;;;;;;;;21.70;46.00;;;;;;484975;245;2211;-53
2022/10/05 11:43:17;;;;;;;;;;;21.70;46.00;;;;;;485005;245;1203;-53
2022/10/05 11:45:20;;;;;;;;;;;21.70;45.90;;;;;;484971;245;1215;-53
2022/10/05 11:47:20;;;;;;;;;;;21.70;45.90;;;;;;485015;246;1889;-53
2022/10/05 11:49:22;;;;;;;;;;;21.70;46.00;;;;;;484975;245;1480;-53
2022/10/05 11:51:23;;;;;;;;;;;21.70;45.90;;;;;;484861;245;1276;-53
2022/10/05 11:53:24;;;;;;;;;;;21.70;45.90;;;;;;485099;245;1254;-54
2022/10/05 11:55:26;;;;;;;;;;;21.70;46.00;;;;;;484667;245;1371;-53
2022/10/05 11:57:28;;;;;;;;;;;21.70;46.00;;;;;;484875;245;1246;-52
2022/10/05 11:59:29;;;;;;;;;;;21.70;46.00;;;;;;485067;245;1249;-53